Time;durP1;ratioP1;P1;durP2;ratioP2;P2;SDS_P1;SDS_P2;PMS_P1;PMS_P2;Temp;Humidity;BMP_temperature;BMP_pressure;BME280_temperature;BME280_humidity;BME280_pressure;Samples;Min_cycle;Max_cycle;Signal;HPM_P1;HPM_P2
2022/04/15 00:02:06;;;;;;;23.60;15.65;;;8.90;99.90;;;;;;5033880;28;20589;-57
2022/04/15 00:04:34;;;;;;;26.42;16.17;;;8.90;99.90;;;;;;5034061;28;20206;-58
2022/04/15 00:07:01;;;;;;;27.95;16.90;;;8.90;99.90;;;;;;5034379;28;20256;-58
2022/04/15 00:09:30;;;;;;;29.48;17.88;;;8.90;99.90;;;;;;5034240;28;20205;-58
2022/04/15 00:12:00;;;;;;;25.70;15.85;;;8.90;99.90;;;;;;5033654;28;20235;-58
2022/04/15 00:14:27;;;;;;;23.33;17.48;;;8.90;99.90;;;;;;5033856;28;20214;-58
2022/04/15 00:16:54;;;;;;;24.05;16.38;;;8.90;99.90;;;;;;5033677;28;20674;-58
2022/04/15 00:19:23;;;;;;;24.83;17.15;;;8.90;99.90;;;;;;5033517;28;20209;-58
2022/04/15 00:21:52;;;;;;;24.95;17.70;;;8.90;99.90;;;;;;5033606;28;20257;-58
2022/04/15 00:24:19;;;;;;;22.23;16.10;;;8.90;99.90;;;;;;5034172;28;20199;-58
2022/04/15 00:26:46;;;;;;;22.75;16.42;;;8.90;99.90;;;;;;5038095;28;20202;-58
2022/04/15 00:29:13;;;;;;;23.92;16.25;;;8.80;99.90;;;;;;5037620;28;20203;-58
2022/04/15 00:31:40;;;;;;;22.90;17.02;;;8.80;99.90;;;;;;5037640;28;20226;-58
2022/04/15 00:34:07;;;;;;;25.02;16.30;;;8.80;99.90;;;;;;5037608;28;20291;-58
2022/04/15 00:36:34;;;;;;;22.35;16.35;;;8.90;99.90;;;;;;5037473;28;20209;-58
2022/04/15 00:39:03;;;;;;;21.58;17.10;;;8.80;99.90;;;;;;5037417;28;20206;-59
2022/04/15 00:41:30;;;;;;;22.95;15.80;;;8.90;99.90;;;;;;5037362;28;20233;-59
2022/04/15 00:43:58;;;;;;;20.50;15.10;;;8.90;99.90;;;;;;5037602;28;20202;-58
2022/04/15 00:46:25;;;;;;;18.77;15.98;;;8.90;99.90;;;;;;5037628;28;20206;-58
2022/04/15 00:48:52;;;;;;;25.60;16.75;;;8.80;99.90;;;;;;5037407;28;20204;-58
2022/04/15 00:51:19;;;;;;;19.95;14.52;;;8.80;99.90;;;;;;5037448;28;20226;-58
2022/04/15 00:53:47;;;;;;;19.25;14.25;;;8.80;99.90;;;;;;5037223;28;20205;-58
2022/04/15 00:56:17;;;;;;;18.10;14.98;;;8.80;99.90;;;;;;5037234;28;20213;-58
2022/04/15 00:58:46;;;;;;;17.35;12.93;;;8.70;99.90;;;;;;5038122;28;20207;-58
2022/04/15 01:01:13;;;;;;;16.98;13.95;;;8.70;99.90;;;;;;5037396;28;20630;-58
2022/04/15 01:03:41;;;;;;;18.45;13.38;;;8.70;99.90;;;;;;5037072;28;20202;-58
2022/04/15 01:06:08;;;;;;;14.32;12.18;;;8.70;99.90;;;;;;5037411;28;20221;-58
2022/04/15 01:08:39;;;;;;;16.88;13.90;;;8.70;99.90;;;;;;5036978;28;20237;-58
2022/04/15 01:11:08;;;;;;;17.92;13.52;;;8.70;99.90;;;;;;5037037;28;20740;-58
2022/04/15 01:13:38;;;;;;;17.90;13.13;;;8.70;99.90;;;;;;5037277;28;20234;-58
2022/04/15 01:16:07;;;;;;;15.38;11.43;;;8.70;99.90;;;;;;5037072;28;20230;-58
2022/04/15 01:18:34;;;;;;;13.60;10.65;;;8.70;99.90;;;;;;5037050;28;20203;-58
2022/04/15 01:21:02;;;;;;;11.07;9.90;;;8.70;99.90;;;;;;5037110;28;20238;-58
2022/04/15 01:23:30;;;;;;;13.15;10.18;;;8.70;99.90;;;;;;5036996;28;20210;-58
2022/04/15 01:25:57;;;;;;;10.13;9.10;;;8.70;99.90;;;;;;5036952;28;20237;-58
2022/04/15 01:28:24;;;;;;;10.77;9.05;;;8.80;99.90;;;;;;5036862;28;20206;-58
2022/04/15 01:30:52;;;;;;;12.63;10.18;;;8.80;99.90;;;;;;5036922;28;20237;-58
2022/04/15 01:33:19;;;;;;;9.70;8.55;;;8.80;99.90;;;;;;5036590;28;20690;-58
2022/04/15 01:35:46;;;;;;;10.85;8.85;;;8.80;99.90;;;;;;5036387;28;20225;-58
2022/04/15 01:38:14;;;;;;;9.70;8.60;;;8.90;99.90;;;;;;5036069;28;20210;-58
2022/04/15 01:40:44;;;;;;;13.25;9.65;;;8.90;99.90;;;;;;5036753;28;20230;-58
2022/04/15 01:43:11;;;;;;;12.40;8.75;;;8.80;99.90;;;;;;5036978;28;20198;-58
2022/04/15 01:45:39;;;;;;;11.35;9.50;;;8.80;99.90;;;;;;5036615;28;20202;-58
2022/04/15 01:48:06;;;;;;;10.13;9.02;;;8.80;99.90;;;;;;5036667;28;20204;-58
2022/04/15 01:50:33;;;;;;;11.05;9.45;;;8.70;99.90;;;;;;5036688;28;20206;-58
2022/04/15 01:53:00;;;;;;;10.20;8.88;;;8.70;99.90;;;;;;5036729;28;20574;-58
2022/04/15 01:55:28;;;;;;;9.60;7.57;;;8.70;99.90;;;;;;5036705;28;20725;-58
2022/04/15 01:57:56;;;;;;;10.27;7.50;;;8.80;99.90;;;;;;5037316;28;20210;-58
2022/04/15 02:00:24;;;;;;;7.80;7.00;;;8.70;99.90;;;;;;5037530;28;20213;-58
2022/04/15 02:02:51;;;;;;;9.38;7.60;;;8.70;99.90;;;;;;5037696;28;20202;-58
2022/04/15 02:05:18;;;;;;;6.97;6.28;;;8.70;99.90;;;;;;5036480;28;20206;-58
2022/04/15 02:07:45;;;;;;;7.97;7.18;;;8.70;99.90;;;;;;5037114;28;20213;-57
2022/04/15 02:10:13;;;;;;;7.88;7.05;;;8.60;99.90;;;;;;5037141;28;20206;-58
2022/04/15 02:12:40;;;;;;;9.95;7.65;;;8.60;99.90;;;;;;5036783;28;20222;-58
2022/04/15 02:15:09;;;;;;;8.18;6.97;;;8.60;99.90;;;;;;5036331;28;20616;-58
2022/04/15 02:17:37;;;;;;;9.52;7.68;;;8.60;99.90;;;;;;5036532;28;20210;-58
2022/04/15 02:20:05;;;;;;;7.65;6.95;;;8.60;99.90;;;;;;5036075;28;20202;-58
2022/04/15 02:22:32;;;;;;;8.02;6.05;;;8.60;99.90;;;;;;5036073;28;20304;-58
2022/04/15 02:25:00;;;;;;;8.13;7.05;;;8.60;99.90;;;;;;5036662;28;20199;-57
2022/04/15 02:27:27;;;;;;;7.43;5.95;;;8.60;99.90;;;;;;5036608;28;20701;-58
2022/04/15 02:29:54;;;;;;;6.93;6.30;;;8.50;99.90;;;;;;5036635;28;20205;-58
2022/04/15 02:32:23;;;;;;;8.50;7.07;;;8.50;99.90;;;;;;5036803;28;20223;-58
2022/04/15 02:34:50;;;;;;;8.05;7.15;;;8.50;99.90;;;;;;5036140;28;20222;-57
2022/04/15 02:37:18;;;;;;;8.50;7.60;;;8.50;99.90;;;;;;5036516;28;20210;-58
2022/04/15 02:39:45;;;;;;;7.82;6.60;;;8.50;99.90;;;;;;5035979;28;20202;-58
2022/04/15 02:42:12;;;;;;;8.70;5.93;;;8.50;99.90;;;;;;5036909;28;20223;-58
2022/04/15 02:44:39;;;;;;;7.78;6.95;;;8.50;99.90;;;;;;5035802;28;20202;-58
2022/04/15 02:47:08;;;;;;;9.98;7.60;;;8.50;99.90;;;;;;5036105;28;20226;-57
2022/04/15 02:49:37;;;;;;;10.30;7.15;;;8.40;99.90;;;;;;5034835;28;20690;-58
2022/04/15 02:52:05;;;;;;;7.75;7.05;;;8.50;99.90;;;;;;5035598;28;20725;-57
2022/04/15 02:54:32;;;;;;;9.35;6.90;;;8.50;99.90;;;;;;5035592;28;20203;-57
2022/04/15 02:56:59;;;;;;;8.13;7.32;;;8.50;99.90;;;;;;5035471;28;20673;-57
2022/04/15 02:59:26;;;;;;;8.30;7.32;;;8.40;99.90;;;;;;5035544;28;20209;-58
2022/04/15 03:01:53;;;;;;;8.10;6.78;;;8.40;99.90;;;;;;5035889;28;20226;-57
2022/04/15 03:04:20;;;;;;;6.75;5.75;;;8.40;99.90;;;;;;5035449;28;20202;-58
2022/04/15 03:06:49;;;;;;;7.78;6.40;;;8.50;99.90;;;;;;5035304;28;20205;-58
2022/04/15 03:09:16;;;;;;;7.57;6.70;;;8.50;99.90;;;;;;5035224;28;20202;-59
2022/04/15 03:11:43;;;;;;;9.90;6.60;;;8.40;99.90;;;;;;5035229;28;20238;-58
2022/04/15 03:14:10;;;;;;;8.77;6.68;;;8.50;99.90;;;;;;5034972;28;20613;-58
2022/04/15 03:16:37;;;;;;;7.00;6.40;;;8.40;99.90;;;;;;5034825;28;20218;-58
2022/04/15 03:19:04;;;;;;;8.05;7.10;;;8.40;99.90;;;;;;5034803;28;20206;-58
2022/04/15 03:21:31;;;;;;;10.90;7.90;;;8.40;99.90;;;;;;5049993;22;20230;-56
2022/04/15 03:24:00;;;;;;;8.45;7.45;;;8.40;99.90;;;;;;5037598;28;20195;-55
2022/04/15 03:26:27;;;;;;;9.90;8.32;;;8.40;99.90;;;;;;5037015;28;20213;-56
2022/04/15 03:28:54;;;;;;;9.55;8.52;;;8.30;99.90;;;;;;5036857;28;20202;-56
2022/04/15 03:31:21;;;;;;;9.75;8.75;;;8.30;99.90;;;;;;5036104;28;20229;-55
2022/04/15 03:33:48;;;;;;;11.15;9.18;;;8.30;99.90;;;;;;5036174;28;20206;-56
2022/04/15 03:36:15;;;;;;;10.15;9.05;;;8.30;99.90;;;;;;5035816;28;20214;-56
2022/04/15 03:38:43;;;;;;;11.02;9.88;;;8.20;99.90;;;;;;5036423;28;20209;-57
2022/04/15 03:41:11;;;;;;;15.95;10.55;;;8.20;99.90;;;;;;5035806;28;20213;-55
2022/04/15 03:43:38;;;;;;;11.88;10.68;;;8.20;99.90;;;;;;5034561;28;20202;-56
2022/04/15 03:46:05;;;;;;;12.13;10.35;;;8.20;99.90;;;;;;5033714;28;20194;-56
2022/04/15 03:48:33;;;;;;;10.25;9.15;;;8.20;99.90;;;;;;5033549;28;20206;-56
2022/04/15 03:51:00;;;;;;;10.55;9.45;;;8.20;99.90;;;;;;5033217;28;20213;-56
2022/04/15 03:53:27;;;;;;;12.45;10.88;;;8.20;99.90;;;;;;5033452;28;20209;-56
2022/04/15 03:55:54;;;;;;;14.75;11.43;;;8.20;99.90;;;;;;5033284;28;20222;-57
2022/04/15 03:58:22;;;;;;;11.05;9.95;;;8.20;99.90;;;;;;5033555;28;20229;-55
2022/04/15 04:00:49;;;;;;;10.80;9.70;;;8.20;99.90;;;;;;5033441;28;20202;-56
2022/04/15 04:03:16;;;;;;;10.65;9.57;;;8.10;99.90;;;;;;5034623;28;20210;-55
2022/04/15 04:05:44;;;;;;;10.23;9.27;;;8.10;99.90;;;;;;5034466;28;20205;-56
2022/04/15 04:09:37;;;;;;;9.75;8.75;;;8.10;99.90;;;;;;5099637;27;20541;-56
2022/04/15 04:12:05;;;;;;;12.85;9.45;;;8.10;99.90;;;;;;5098945;28;20220;-57
2022/04/15 04:14:32;;;;;;;11.15;9.25;;;8.10;99.90;;;;;;5091169;28;20208;-56
2022/04/15 04:16:59;;;;;;;10.88;9.10;;;8.10;99.90;;;;;;5090775;28;20204;-57
2022/04/15 04:19:26;;;;;;;12.60;9.90;;;8.10;99.90;;;;;;5090326;28;20695;-57
2022/04/15 04:21:53;;;;;;;10.68;9.63;;;8.10;99.90;;;;;;5093483;28;20216;-56
2022/04/15 04:24:20;;;;;;;9.57;8.57;;;8.10;99.90;;;;;;5097397;28;20200;-56
2022/04/15 04:26:48;;;;;;;12.15;8.30;;;8.10;99.90;;;;;;5096496;28;20205;-57
2022/04/15 04:29:16;;;;;;;11.93;8.88;;;8.10;99.90;;;;;;5097720;28;20227;-57
2022/04/15 04:31:43;;;;;;;9.57;8.68;;;8.10;99.90;;;;;;5099660;28;20243;-56
2022/04/15 04:34:10;;;;;;;9.25;7.13;;;8.10;99.90;;;;;;5091477;28;20662;-56
2022/04/15 04:36:37;;;;;;;9.85;7.72;;;8.10;99.90;;;;;;5090568;28;20695;-56
2022/04/15 04:39:08;;;;;;;10.73;8.75;;;8.10;99.90;;;;;;5090445;28;20712;-57
2022/04/15 04:41:35;;;;;;;8.10;7.30;;;8.10;99.90;;;;;;5091080;28;20220;-57
2022/04/15 04:44:04;;;;;;;9.00;7.10;;;8.10;99.90;;;;;;5090404;28;20207;-57
2022/04/15 04:46:31;;;;;;;8.07;7.38;;;8.10;99.90;;;;;;5090787;28;20196;-57
2022/04/15 04:48:58;;;;;;;9.88;7.70;;;8.10;99.90;;;;;;5092672;28;20239;-57
2022/04/15 04:51:26;;;;;;;11.25;6.53;;;8.10;99.90;;;;;;5095804;28;20225;-56
2022/04/15 04:53:53;;;;;;;7.60;6.90;;;8.10;99.90;;;;;;5093106;28;20207;-58
2022/04/15 04:56:20;;;;;;;7.60;6.90;;;8.10;99.90;;;;;;5092478;28;20563;-57
2022/04/15 04:58:47;;;;;;;9.98;8.02;;;8.20;99.90;;;;;;5093524;28;20208;-57
2022/04/15 05:01:15;;;;;;;7.97;7.25;;;8.10;99.90;;;;;;5092452;28;20221;-57
2022/04/15 05:03:42;;;;;;;8.80;8.00;;;8.10;99.90;;;;;;5092780;28;20222;-57
2022/04/15 05:06:09;;;;;;;8.80;6.90;;;8.10;99.90;;;;;;5092984;28;20208;-57
2022/04/15 05:08:36;;;;;;;8.50;7.60;;;8.10;99.90;;;;;;5092962;28;20228;-57
2022/04/15 05:11:03;;;;;;;8.18;7.38;;;8.10;99.90;;;;;;5090599;28;20201;-57
2022/04/15 05:13:30;;;;;;;9.77;8.52;;;8.10;99.90;;;;;;5089772;28;20197;-57
2022/04/15 05:15:57;;;;;;;9.30;8.40;;;8.10;99.90;;;;;;5089899;28;20602;-56
2022/04/15 05:18:26;;;;;;;9.32;8.35;;;8.10;99.90;;;;;;5089703;28;20215;-57
2022/04/15 05:20:53;;;;;;;10.45;8.65;;;8.10;99.90;;;;;;5076934;28;20227;-57
2022/04/15 05:23:20;;;;;;;13.38;9.23;;;8.10;99.90;;;;;;5076034;28;20673;-58
2022/04/15 05:25:47;;;;;;;10.25;9.02;;;8.10;99.90;;;;;;5076385;28;20661;-57
2022/04/15 05:28:14;;;;;;;11.73;9.18;;;8.10;99.90;;;;;;5075879;28;20217;-58
2022/04/15 05:30:41;;;;;;;12.35;9.90;;;8.10;99.90;;;;;;5076350;28;20205;-57
2022/04/15 05:33:08;;;;;;;11.02;8.27;;;8.10;99.90;;;;;;5075756;28;20232;-57
2022/04/15 05:35:37;;;;;;;12.43;11.18;;;8.10;99.90;;;;;;5076712;28;20210;-57
2022/04/15 05:38:07;;;;;;;11.50;9.90;;;8.00;99.90;;;;;;5076706;28;20193;-56
2022/04/15 05:40:34;;;;;;;13.30;10.25;;;7.90;99.90;;;;;;5076721;28;20204;-57
2022/04/15 05:43:01;;;;;;;13.63;10.20;;;7.90;99.90;;;;;;5077094;28;20221;-57
2022/04/15 05:45:28;;;;;;;12.20;10.68;;;7.80;99.90;;;;;;5080705;28;20212;-57
2022/04/15 05:47:57;;;;;;;13.68;10.85;;;7.80;99.90;;;;;;5079560;28;20205;-56
2022/04/15 05:50:25;;;;;;;14.68;11.48;;;7.80;99.90;;;;;;5078893;28;20209;-57
2022/04/15 05:52:53;;;;;;;13.15;11.73;;;7.70;99.90;;;;;;5078676;28;20290;-59
2022/04/15 05:55:20;;;;;;;13.50;10.82;;;7.70;99.90;;;;;;5081341;28;20205;-57
2022/04/15 05:57:47;;;;;;;17.52;12.27;;;7.70;99.90;;;;;;5080758;28;20236;-57
2022/04/15 06:00:15;;;;;;;12.82;11.00;;;7.70;99.90;;;;;;5082154;28;20208;-58
2022/04/15 06:02:42;;;;;;;14.32;11.70;;;7.70;99.90;;;;;;5079416;28;20225;-57
2022/04/15 06:05:10;;;;;;;13.93;10.80;;;7.80;99.90;;;;;;5076885;28;20201;-57
2022/04/15 06:07:37;;;;;;;13.98;10.13;;;7.90;99.90;;;;;;5076567;28;20205;-56
2022/04/15 06:10:06;;;;;;;12.73;10.48;;;7.90;99.90;;;;;;5076213;28;20233;-57
2022/04/15 06:12:54;;;;;;;11.90;10.55;;;8.00;99.90;;;;;;5076271;28;20739;-57
2022/04/15 06:15:22;;;;;;;14.82;11.18;;;8.00;99.90;;;;;;5078925;28;20220;-56
2022/04/15 06:17:49;;;;;;;11.10;8.52;;;8.10;99.90;;;;;;5081368;28;20240;-56
2022/04/15 06:20:17;;;;;;;10.65;8.57;;;8.20;99.90;;;;;;5079078;28;20203;-57
2022/04/15 06:22:45;;;;;;;10.05;8.52;;;8.30;99.90;;;;;;5078906;28;20583;-57
2022/04/15 06:25:13;;;;;;;7.97;7.05;;;8.30;99.90;;;;;;5080162;28;20205;-57
2022/04/15 06:27:40;;;;;;;8.80;7.90;;;8.30;99.90;;;;;;5079584;28;20201;-57
2022/04/15 06:30:08;;;;;;;10.18;8.43;;;8.30;99.90;;;;;;5085748;28;20224;-56
2022/04/15 06:32:35;;;;;;;8.88;8.00;;;8.40;99.90;;;;;;5078013;28;20232;-57
2022/04/15 06:35:03;;;;;;;10.38;7.45;;;8.50;99.90;;;;;;5079453;28;20207;-57
2022/04/15 06:37:30;;;;;;;9.10;8.18;;;8.50;99.90;;;;;;5076396;28;20212;-57
2022/04/15 06:39:57;;;;;;;7.85;7.05;;;8.60;99.90;;;;;;5078186;28;20205;-58
2022/04/15 06:42:27;;;;;;;10.82;7.63;;;8.60;99.90;;;;;;5077151;28;20220;-57
2022/04/15 06:44:55;;;;;;;7.75;6.80;;;8.70;99.90;;;;;;5076668;28;20612;-57
2022/04/15 06:47:22;;;;;;;6.90;6.07;;;8.70;99.90;;;;;;5076095;28;20197;-57
2022/04/15 06:49:49;;;;;;;6.45;5.72;;;8.80;99.90;;;;;;5075014;28;20728;-57
2022/04/15 06:52:17;;;;;;;6.47;5.57;;;8.80;99.90;;;;;;5074757;28;20266;-57
2022/04/15 06:54:44;;;;;;;7.05;6.03;;;8.80;99.90;;;;;;5074570;28;20247;-57
2022/04/15 06:57:12;;;;;;;7.60;6.47;;;8.80;99.90;;;;;;5074583;28;20621;-57
2022/04/15 06:59:40;;;;;;;7.95;6.90;;;8.90;99.90;;;;;;5074671;28;20606;-57
2022/04/15 07:02:07;;;;;;;7.50;6.10;;;9.10;99.90;;;;;;5074664;28;20224;-56
2022/04/15 07:04:35;;;;;;;6.30;5.50;;;9.20;99.90;;;;;;5074387;28;20691;-58
2022/04/15 07:07:02;;;;;;;6.95;5.70;;;9.40;99.90;;;;;;5074250;28;20266;-57
2022/04/15 07:09:29;;;;;;;7.07;6.10;;;9.40;99.90;;;;;;5073761;28;20236;-57
2022/04/15 07:11:57;;;;;;;5.75;5.15;;;9.30;99.90;;;;;;5074264;28;20221;-56
2022/04/15 07:14:24;;;;;;;6.00;5.50;;;9.30;99.90;;;;;;5074990;28;20197;-56
2022/04/15 07:16:53;;;;;;;6.07;5.00;;;9.30;99.90;;;;;;5074800;28;20692;-59
2022/04/15 07:19:20;;;;;;;7.20;5.55;;;9.40;99.90;;;;;;5074978;28;20204;-58
2022/04/15 07:21:47;;;;;;;4.95;4.55;;;9.50;99.90;;;;;;5075045;28;20225;-57
2022/04/15 07:24:14;;;;;;;5.88;5.28;;;9.70;99.90;;;;;;5075306;28;20205;-57
2022/04/15 07:26:41;;;;;;;5.57;5.00;;;9.80;99.90;;;;;;5074245;28;20205;-57
2022/04/15 07:29:08;;;;;;;5.03;4.63;;;9.90;99.90;;;;;;5073844;28;20483;-57
2022/04/15 07:31:35;;;;;;;7.53;4.53;;;10.00;99.90;;;;;;5073938;28;20479;-56
2022/04/15 07:34:04;;;;;;;5.97;4.93;;;10.10;99.60;;;;;;5073807;28;20958;-58
2022/04/15 07:36:53;;;;;;;6.03;4.60;;;10.20;99.50;;;;;;5074963;28;20528;-57
2022/04/15 07:39:21;;;;;;;5.20;4.70;;;10.30;98.60;;;;;;5074206;28;20442;-57
2022/04/15 07:41:49;;;;;;;4.27;3.90;;;10.40;98.50;;;;;;5075134;28;20470;-58
2022/04/15 07:44:16;;;;;;;4.77;4.30;;;10.40;98.20;;;;;;5073718;28;20443;-58
2022/04/15 07:46:45;;;;;;;6.80;4.70;;;10.60;97.70;;;;;;5074465;28;20447;-57
2022/04/15 07:49:14;;;;;;;5.40;4.90;;;10.60;97.40;;;;;;5075035;28;20471;-56
2022/04/15 07:51:41;;;;;;;5.33;4.73;;;10.80;97.70;;;;;;5075372;28;20482;-58
2022/04/15 07:54:09;;;;;;;4.80;4.40;;;11.10;96.80;;;;;;5075282;28;20439;-57
2022/04/15 07:56:36;;;;;;;5.33;4.83;;;11.20;95.60;;;;;;5074033;28;20443;-58
2022/04/15 07:59:05;;;;;;;5.37;4.40;;;11.20;95.00;;;;;;5074193;28;20538;-58
2022/04/15 08:01:32;;;;;;;5.93;5.23;;;11.10;94.70;;;;;;5073599;28;20473;-58
2022/04/15 08:04:00;;;;;;;7.03;5.57;;;11.00;94.90;;;;;;5073886;28;20443;-58
2022/04/15 08:06:30;;;;;;;8.20;6.17;;;10.90;94.90;;;;;;5073222;28;20443;-57
2022/04/15 08:09:00;;;;;;;7.03;6.27;;;10.80;95.30;;;;;;5073746;28;20486;-57
2022/04/15 08:11:28;;;;;;;8.33;6.77;;;10.70;95.50;;;;;;5073314;28;20479;-57
2022/04/15 08:13:55;;;;;;;7.70;7.00;;;10.60;96.00;;;;;;5073296;28;20462;-57
2022/04/15 08:16:24;;;;;;;7.87;7.10;;;10.70;96.20;;;;;;5073172;28;20446;-57
2022/04/15 08:18:51;;;;;;;11.40;7.90;;;10.80;95.80;;;;;;5073802;28;20530;-59
2022/04/15 08:21:19;;;;;;;9.57;7.90;;;10.80;95.50;;;;;;5074112;28;20468;-58
2022/04/15 08:23:47;;;;;;;8.50;7.60;;;10.80;95.40;;;;;;5074403;28;20458;-59
2022/04/15 08:26:14;;;;;;;7.60;6.87;;;10.70;95.40;;;;;;5074364;28;20455;-59
2022/04/15 08:28:41;;;;;;;7.83;6.10;;;10.60;95.40;;;;;;5073948;28;20451;-59
2022/04/15 08:31:09;;;;;;;7.63;6.80;;;10.60;96.20;;;;;;5075696;28;20446;-59
2022/04/15 08:33:37;;;;;;;8.30;7.40;;;10.60;96.30;;;;;;5076542;28;20483;-58
2022/04/15 08:36:04;;;;;;;7.90;6.03;;;10.70;96.00;;;;;;5075127;28;20473;-57
2022/04/15 08:38:32;;;;;;;8.37;7.57;;;10.70;95.90;;;;;;5074521;28;20970;-57
2022/04/15 08:41:01;;;;;;;7.90;7.17;;;10.80;95.80;;;;;;5074616;28;20443;-59
2022/04/15 08:43:29;;;;;;;7.83;7.03;;;10.80;95.90;;;;;;5074064;28;20447;-58
2022/04/15 08:45:56;;;;;;;7.83;7.13;;;10.90;96.00;;;;;;5073363;28;20458;-57
2022/04/15 08:48:27;;;;;;;8.30;7.50;;;11.00;95.60;;;;;;5072964;28;20963;-57
2022/04/15 08:50:54;;;;;;;7.80;7.00;;;11.10;95.30;;;;;;5072767;28;20512;-59
2022/04/15 08:53:22;;;;;;;8.07;7.27;;;11.20;95.10;;;;;;5072908;28;20965;-59
2022/04/15 08:55:50;;;;;;;8.93;8.03;;;11.20;95.00;;;;;;5075621;28;20458;-57
2022/04/15 08:58:18;;;;;;;8.27;7.57;;;11.30;94.80;;;;;;5076532;28;20483;-58
2022/04/15 09:00:45;;;;;;;10.20;8.13;;;11.30;94.50;;;;;;5076847;28;20435;-59
2022/04/15 09:03:12;;;;;;;8.00;7.20;;;11.40;94.40;;;;;;5076542;28;20470;-57
2022/04/15 09:05:39;;;;;;;8.40;7.60;;;11.40;94.30;;;;;;5076742;28;20454;-58
2022/04/15 09:08:08;;;;;;;9.80;8.43;;;11.30;93.80;;;;;;5076631;28;20455;-58
2022/04/15 09:10:36;;;;;;;12.30;8.30;;;11.30;94.10;;;;;;5076441;28;20479;-58
2022/04/15 09:13:04;;;;;;;8.90;8.00;;;11.40;94.00;;;;;;5076802;28;20479;-58
2022/04/15 09:15:33;;;;;;;12.27;8.90;;;11.40;93.60;;;;;;5076595;28;20451;-58
2022/04/15 09:18:01;;;;;;;9.83;8.57;;;11.40;93.50;;;;;;5076688;28;20451;-58
2022/04/15 09:20:33;;;;;;;9.73;8.67;;;11.30;94.40;;;;;;5076051;28;20943;-58
2022/04/15 09:23:09;;;;;;;10.17;9.07;;;11.40;94.40;;;;;;5090244;22;20496;-58
2022/04/15 09:25:37;;;;;;;10.87;8.50;;;11.50;93.90;;;;;;5036760;28;20437;-58
2022/04/15 09:28:06;;;;;;;8.70;7.63;;;11.50;93.40;;;;;;5036821;28;20441;-57
2022/04/15 09:30:35;;;;;;;7.97;7.20;;;11.40;93.10;;;;;;5036773;28;20512;-58
2022/04/15 09:33:04;;;;;;;9.30;8.20;;;11.40;93.50;;;;;;5037172;28;20472;-57
2022/04/15 09:35:31;;;;;;;9.33;8.20;;;11.40;93.70;;;;;;5036830;28;20441;-58
2022/04/15 09:38:03;;;;;;;8.97;8.03;;;11.50;93.70;;;;;;5036972;28;20463;-58
2022/04/15 09:40:35;;;;;;;10.80;8.80;;;11.80;93.50;;;;;;5036728;28;20438;-57
2022/04/15 09:43:04;;;;;;;10.60;7.57;;;12.20;92.40;;;;;;5036477;28;20548;-59
2022/04/15 09:45:34;;;;;;;10.73;8.10;;;12.30;91.20;;;;;;5036307;28;20453;-59
2022/04/15 09:48:04;;;;;;;10.93;8.90;;;12.30;90.90;;;;;;5036013;28;20923;-58
2022/04/15 09:50:34;;;;;;;8.33;7.50;;;12.30;90.90;;;;;;5036224;28;20477;-58
2022/04/15 09:53:15;;;;;;;11.07;8.30;;;12.40;91.00;;;;;;5036876;28;20505;-58
2022/04/15 09:55:43;;;;;;;8.03;7.33;;;12.50;90.60;;;;;;5035963;28;20945;-58
2022/04/15 09:58:12;;;;;;;12.47;8.40;;;12.70;89.90;;;;;;5036246;28;20449;-58
2022/04/15 10:00:41;;;;;;;9.00;8.10;;;12.70;88.60;;;;;;5036012;28;20527;-58
2022/04/15 10:03:12;;;;;;;9.90;7.67;;;12.80;88.00;;;;;;5036126;28;20965;-58
2022/04/15 10:05:40;;;;;;;9.40;7.60;;;12.80;87.30;;;;;;5036389;28;20441;-58
2022/04/15 10:08:08;;;;;;;8.00;7.20;;;12.80;87.80;;;;;;5036229;28;20961;-58
2022/04/15 10:10:35;;;;;;;10.00;9.00;;;12.70;87.40;;;;;;5035913;28;21012;-58
2022/04/15 10:13:04;;;;;;;10.47;8.10;;;12.60;88.70;;;;;;5036253;28;20491;-58
2022/04/15 10:15:33;;;;;;;13.57;8.00;;;12.50;89.00;;;;;;5035780;28;20975;-57
2022/04/15 10:18:01;;;;;;;9.63;7.93;;;12.20;89.20;;;;;;5035894;28;20464;-57
2022/04/15 10:20:31;;;;;;;8.50;7.60;;;12.00;90.50;;;;;;5035866;28;20484;-59
2022/04/15 10:23:02;;;;;;;9.87;7.80;;;11.80;91.30;;;;;;5035724;28;20480;-58
2022/04/15 10:25:30;;;;;;;10.30;7.77;;;11.80;91.70;;;;;;5035791;28;20444;-58
2022/04/15 10:28:05;;;;;;;8.40;7.40;;;11.80;91.80;;;;;;5035417;28;20476;-58
2022/04/15 10:30:33;;;;;;;10.90;6.73;;;11.90;92.00;;;;;;5035636;28;20475;-58
2022/04/15 10:33:00;;;;;;;12.50;8.57;;;11.90;91.40;;;;;;5035446;28;20465;-58
2022/04/15 10:35:30;;;;;;;10.20;7.33;;;11.90;91.10;;;;;;5035559;28;20463;-58
2022/04/15 10:38:00;;;;;;;7.60;6.80;;;11.90;91.20;;;;;;5035888;28;20444;-58
2022/04/15 10:40:30;;;;;;;8.63;7.73;;;11.80;91.50;;;;;;5036556;28;20430;-57
2022/04/15 10:43:05;;;;;;;12.60;8.20;;;11.90;91.80;;;;;;5035293;28;20464;-60
2022/04/15 10:45:36;;;;;;;8.23;7.40;;;11.80;91.60;;;;;;5035205;28;20441;-58
2022/04/15 10:48:04;;;;;;;12.13;9.33;;;11.90;91.90;;;;;;5035700;28;20436;-57
2022/04/15 10:50:35;;;;;;;11.10;8.47;;;11.80;91.80;;;;;;5035157;28;20487;-58
2022/04/15 10:53:19;;;;;;;9.57;8.50;;;11.80;92.10;;;;;;5035040;28;20500;-58
2022/04/15 10:55:48;;;;;;;9.73;8.70;;;11.80;92.00;;;;;;5035468;28;20456;-58
2022/04/15 10:58:17;;;;;;;10.03;8.60;;;11.80;91.70;;;;;;5035435;28;20453;-58
2022/04/15 11:03:31;;;;;;;13.43;9.63;;;11.90;91.80;;;;;;5034999;28;20451;-57
2022/04/15 11:06:04;;;;;;;9.20;8.20;;;12.00;91.60;;;;;;5035037;28;20489;-57
2022/04/15 11:08:46;;;;;;;11.43;9.03;;;11.90;91.80;;;;;;5035059;28;20916;-57
2022/04/15 11:11:13;;;;;;;10.47;8.30;;;12.10;91.90;;;;;;5034802;28;20488;-57
2022/04/15 11:14:02;;;;;;;11.70;9.70;;;12.20;91.70;;;;;;5035140;28;20882;-58
2022/04/15 11:16:48;;;;;;;11.43;9.33;;;12.40;91.40;;;;;;5034716;28;20452;-58
2022/04/15 11:19:22;;;;;;;11.90;9.70;;;12.50;91.10;;;;;;5034928;28;20421;-57
2022/04/15 11:21:53;;;;;;;13.40;10.97;;;12.70;91.00;;;;;;5034101;28;20476;-59
2022/04/15 11:24:25;;;;;;;16.10;11.60;;;12.70;90.40;;;;;;5034257;28;20997;-57
2022/04/15 11:26:58;;;;;;;14.60;12.90;;;12.80;90.60;;;;;;5034392;28;20441;-57
2022/04/15 11:29:30;;;;;;;15.33;12.17;;;12.80;90.40;;;;;;5034425;28;20425;-59
2022/04/15 11:32:01;;;;;;;16.50;13.37;;;12.80;90.50;;;;;;5034221;28;20497;-59
2022/04/15 11:34:28;;;;;;;15.60;13.00;;;12.90;90.60;;;;;;5034198;28;20532;-57
2022/04/15 11:37:02;;;;;;;15.10;12.10;;;12.90;90.80;;;;;;5034184;28;20449;-57
2022/04/15 11:39:29;;;;;;;17.33;13.07;;;12.80;91.00;;;;;;5034372;28;20437;-58
2022/04/15 11:41:58;;;;;;;14.70;12.37;;;12.80;91.40;;;;;;5034253;28;20477;-58
2022/04/15 11:44:31;;;;;;;13.23;11.87;;;12.70;91.20;;;;;;5034402;28;20506;-58
2022/04/15 11:47:15;;;;;;;15.30;11.70;;;12.70;91.10;;;;;;5034348;28;20433;-58
2022/04/15 11:49:44;;;;;;;14.17;12.67;;;12.50;91.40;;;;;;5033998;28;20901;-58
2022/04/15 11:52:20;;;;;;;15.97;14.30;;;12.40;92.00;;;;;;5034335;28;20461;-57
2022/04/15 11:54:47;;;;;;;15.90;11.90;;;12.20;92.40;;;;;;5034346;28;20421;-58
2022/04/15 11:57:14;;;;;;;12.70;11.27;;;12.10;92.90;;;;;;5033771;28;20445;-58
2022/04/15 11:59:42;;;;;;;14.50;11.00;;;12.00;93.40;;;;;;5034256;28;20444;-59
2022/04/15 12:02:12;;;;;;;15.70;11.43;;;12.00;93.80;;;;;;5033627;28;20467;-58
2022/04/15 12:04:49;;;;;;;11.60;10.40;;;11.80;93.50;;;;;;5034390;28;20453;-58
2022/04/15 12:07:19;;;;;;;13.03;11.23;;;11.70;93.90;;;;;;5034031;28;20437;-58
2022/04/15 12:09:46;;;;;;;13.90;10.80;;;11.50;94.50;;;;;;5033653;28;20452;-58
2022/04/15 12:12:23;;;;;;;17.50;10.60;;;11.40;94.90;;;;;;5033755;28;20472;-58
2022/04/15 12:14:51;;;;;;;11.83;9.97;;;11.40;95.10;;;;;;5033643;28;20433;-58
2022/04/15 12:17:19;;;;;;;12.97;9.80;;;11.30;95.40;;;;;;5033346;28;20449;-58
2022/04/15 12:19:47;;;;;;;12.93;11.63;;;11.20;95.40;;;;;;5033765;28;20449;-58
2022/04/15 12:22:16;;;;;;;17.57;12.67;;;11.20;95.70;;;;;;5033843;28;20484;-57
2022/04/15 12:24:45;;;;;;;11.97;10.70;;;11.10;95.90;;;;;;5033911;28;20540;-58
2022/04/15 12:27:16;;;;;;;13.63;12.23;;;11.00;96.40;;;;;;5034083;28;20463;-58
2022/04/15 12:29:48;;;;;;;14.63;10.60;;;11.00;96.80;;;;;;5035363;28;20433;-58
2022/04/15 12:32:17;;;;;;;14.37;12.00;;;11.10;96.60;;;;;;5039186;28;20469;-57
2022/04/15 12:34:45;;;;;;;15.63;10.83;;;11.10;96.10;;;;;;5039938;28;20440;-58
2022/04/15 12:37:32;;;;;;;15.70;11.90;;;11.20;96.20;;;;;;5039393;28;20476;-58
2022/04/15 12:40:00;;;;;;;13.37;12.00;;;11.40;95.30;;;;;;5039567;28;20968;-59
2022/04/15 12:42:28;;;;;;;15.20;12.63;;;11.30;95.30;;;;;;5039409;28;20475;-57
2022/04/15 12:44:56;;;;;;;16.97;12.07;;;11.30;95.30;;;;;;5039525;28;20445;-58
2022/04/15 12:47:26;;;;;;;14.30;12.80;;;11.30;95.40;;;;;;5038053;28;20447;-57
2022/04/15 12:49:53;;;;;;;14.23;12.33;;;11.40;95.30;;;;;;5038444;28;20482;-57
2022/04/15 12:52:21;;;;;;;13.73;12.37;;;11.60;94.90;;;;;;5037963;28;20457;-57
2022/04/15 12:55:01;;;;;;;15.93;14.13;;;11.70;94.60;;;;;;5038389;28;20441;-57
2022/04/15 12:57:33;;;;;;;13.70;12.27;;;11.90;93.90;;;;;;5037509;28;20449;-55